createdAt,value
2022-12-03T00:03:23.933Z,27.10
2022-12-03T00:07:30.876Z,30.03
2022-12-03T00:11:37.522Z,28.33
2022-12-03T00:15:44.211Z,29.17
2022-12-03T00:19:50.941Z,34.93
2022-12-03T00:23:57.661Z,32.40
2022-12-03T00:28:05.397Z,29.60
2022-12-03T00:32:12.201Z,31.13
2022-12-03T00:36:19.505Z,31.67
2022-12-03T00:40:26.168Z,28.67
2022-12-03T00:44:33.039Z,31.73
2022-12-03T00:48:39.723Z,39.60
2022-12-03T00:52:46.470Z,32.17
2022-12-03T00:56:53.149Z,34.33
2022-12-03T01:00:59.819Z,31.20
2022-12-03T01:05:06.903Z,32.33
2022-12-03T01:09:13.644Z,32.93
2022-12-03T01:13:20.335Z,35.47
2022-12-03T01:17:27.008Z,39.20
2022-12-03T01:21:34.330Z,35.37
2022-12-03T01:25:40.984Z,34.50
2022-12-03T01:29:47.617Z,42.17
2022-12-03T01:33:54.370Z,38.57
2022-12-03T01:38:01.147Z,36.33
2022-12-03T01:42:11.745Z,40.33
2022-12-03T01:46:22.474Z,37.10
2022-12-03T01:50:33.844Z,30.80
2022-12-03T01:54:45.986Z,32.43
2022-12-03T01:58:52.720Z,25.85
2022-12-03T02:03:10.905Z,39.33
2022-12-03T02:07:24.029Z,31.17
2022-12-03T02:11:35.546Z,36.83
2022-12-03T02:15:42.273Z,36.43
2022-12-03T02:19:49.655Z,33.93
2022-12-03T02:24:10.229Z,35.70
2022-12-03T02:28:16.982Z,34.53
2022-12-03T02:32:23.821Z,40.93
2022-12-03T02:36:30.559Z,38.80
2022-12-03T02:40:37.820Z,40.10
2022-12-03T02:44:44.484Z,38.53
2022-12-03T02:48:51.194Z,38.17
2022-12-03T02:53:01.149Z,39.03
2022-12-03T02:57:07.941Z,36.77
2022-12-03T03:01:18.107Z,40.77
2022-12-03T03:05:25.436Z,38.97
2022-12-03T03:09:33.172Z,38.13
2022-12-03T03:13:40.126Z,40.93
2022-12-03T03:17:46.833Z,37.23
2022-12-03T03:21:54.116Z,34.70
2022-12-03T03:26:09.781Z,46.37
2022-12-03T03:30:16.596Z,34.87
2022-12-03T03:34:23.400Z,37.33
2022-12-03T03:38:31.102Z,39.40
2022-12-03T03:42:38.251Z,36.50
2022-12-03T03:46:44.963Z,36.70
2022-12-03T03:50:52.316Z,31.33
2022-12-03T03:54:59.292Z,29.13
2022-12-03T03:59:06.027Z,28.60
2022-12-03T04:03:13.373Z,27.90
2022-12-03T04:07:20.265Z,28.87
2022-12-03T04:11:47.170Z,30.40
2022-12-03T04:15:53.803Z,32.33
2022-12-03T04:20:00.461Z,32.10
2022-12-03T04:24:08.944Z,29.87
2022-12-03T04:28:34.292Z,28.33
2022-12-03T04:32:59.630Z,28.67
2022-12-03T04:37:06.419Z,31.63
2022-12-03T04:41:13.083Z,30.47
2022-12-03T04:45:19.875Z,25.03
2022-12-03T04:49:26.652Z,27.00
2022-12-03T04:53:36.122Z,29.20
2022-12-03T04:57:43.032Z,26.30
2022-12-03T05:01:49.792Z,28.13
2022-12-03T05:05:56.484Z,29.30
2022-12-03T05:10:04.049Z,25.63
2022-12-03T05:14:11.185Z,29.93
2022-12-03T05:18:17.855Z,28.90
2022-12-03T05:22:24.503Z,27.80
2022-12-03T05:26:31.197Z,27.47
2022-12-03T05:30:38.000Z,29.10
2022-12-03T05:34:44.673Z,32.30
2022-12-03T05:38:51.367Z,30.07
2022-12-03T05:42:58.101Z,34.73
2022-12-03T05:47:04.781Z,30.90
2022-12-03T05:51:11.532Z,30.23
2022-12-03T05:55:18.949Z,32.80
2022-12-03T05:59:25.660Z,32.50
2022-12-03T06:03:32.503Z,29.40
2022-12-03T06:07:39.832Z,33.27
2022-12-03T06:11:46.524Z,33.30
2022-12-03T06:15:53.251Z,36.57
2022-12-03T06:19:59.969Z,37.00
2022-12-03T06:24:06.817Z,30.23
2022-12-03T06:28:13.527Z,37.97
2022-12-03T06:32:20.206Z,32.73
2022-12-03T06:36:27.728Z,35.13
2022-12-03T06:40:34.386Z,41.70
2022-12-03T06:44:41.177Z,41.70
2022-12-03T06:48:47.869Z,42.43
2022-12-03T06:52:54.539Z,34.00
2022-12-03T06:57:01.186Z,35.77
2022-12-03T07:01:07.814Z,42.60
2022-12-03T07:05:14.640Z,46.27
2022-12-03T07:09:21.282Z,46.90
2022-12-03T07:13:27.942Z,41.60
2022-12-03T07:17:35.190Z,47.70
2022-12-03T07:21:42.130Z,41.93
2022-12-03T07:25:48.785Z,44.53
2022-12-03T07:29:55.444Z,43.37
2022-12-03T07:34:02.115Z,52.13
2022-12-03T07:38:08.883Z,56.27
2022-12-03T07:42:15.511Z,56.63
2022-12-03T07:46:22.310Z,53.80
2022-12-03T07:50:28.990Z,56.33
2022-12-03T07:54:35.789Z,58.67
2022-12-03T07:58:42.435Z,53.93
2022-12-03T08:02:49.143Z,54.40
2022-12-03T08:06:56.010Z,55.43
2022-12-03T08:11:02.915Z,53.67
2022-12-03T08:15:35.213Z,57.60
2022-12-03T08:19:46.987Z,58.97
2022-12-03T08:23:53.645Z,51.80
2022-12-03T08:28:12.919Z,57.30
2022-12-03T08:32:19.649Z,52.63
2022-12-03T08:36:32.843Z,50.67
2022-12-03T08:40:42.050Z,45.23
2022-12-03T08:44:48.704Z,51.90
2022-12-03T08:48:55.340Z,54.57
2022-12-03T08:53:13.846Z,46.60
2022-12-03T08:57:32.735Z,57.00
2022-12-03T09:01:44.322Z,56.80
2022-12-03T09:05:51.682Z,61.63
2022-12-03T09:09:58.363Z,47.70
2022-12-03T09:14:05.577Z,49.80
2022-12-03T09:18:14.260Z,51.03
2022-12-03T09:22:20.940Z,40.93
2022-12-03T09:26:28.295Z,51.73
2022-12-03T09:30:34.990Z,50.83
2022-12-03T09:34:42.659Z,52.03
2022-12-03T09:38:49.523Z,54.00
2022-12-03T09:42:58.607Z,53.87
2022-12-03T09:47:05.755Z,46.43
2022-12-03T09:51:13.015Z,40.30
2022-12-03T09:55:24.254Z,43.17
2022-12-03T09:59:33.238Z,33.43
2022-12-03T10:03:44.984Z,31.67
2022-12-03T10:07:52.495Z,33.33
2022-12-03T10:12:00.026Z,33.00
2022-12-03T10:16:11.706Z,36.97
2022-12-03T10:20:21.146Z,32.03
2022-12-03T10:24:33.318Z,36.53
2022-12-03T10:28:42.295Z,34.47
2022-12-03T10:32:50.958Z,29.73
2022-12-03T10:37:19.129Z,28.23
2022-12-03T10:41:28.448Z,32.47
2022-12-03T10:45:35.098Z,34.77
2022-12-03T10:49:42.203Z,30.93
2022-12-03T10:53:50.598Z,31.80
2022-12-03T10:57:57.545Z,35.90
2022-12-03T11:02:18.403Z,31.87
2022-12-03T11:06:25.090Z,38.53
2022-12-03T11:10:32.135Z,34.63
2022-12-03T11:14:51.606Z,38.37
2022-12-03T11:19:00.101Z,35.03
2022-12-03T11:23:10.525Z,34.93
2022-12-03T11:27:20.813Z,38.00
2022-12-03T11:31:34.126Z,49.00
2022-12-03T11:36:00.750Z,30.13
2022-12-03T11:40:27.833Z,50.17
2022-12-03T11:44:34.642Z,34.47
2022-12-03T11:48:45.729Z,39.63
2022-12-03T11:53:01.820Z,40.40
2022-12-03T11:57:38.539Z,44.97
2022-12-03T12:01:45.973Z,52.07
2022-12-03T12:06:03.202Z,49.27
2022-12-03T12:10:11.333Z,50.07
2022-12-03T12:14:26.783Z,46.00
2022-12-03T12:18:55.392Z,46.27
2022-12-03T12:23:22.577Z,65.37
2022-12-03T12:27:38.292Z,58.80
2022-12-03T12:31:47.337Z,63.73
2022-12-03T12:35:57.896Z,66.65
2022-12-03T12:40:14.023Z,55.07
2022-12-03T12:44:23.509Z,57.27
2022-12-03T12:48:33.980Z,60.90
2022-12-03T12:52:51.710Z,59.87
2022-12-03T12:56:58.369Z,46.93
2022-12-03T13:01:11.184Z,56.57
2022-12-03T13:05:18.104Z,54.50
2022-12-03T13:09:25.828Z,46.93
2022-12-03T13:13:43.300Z,45.57
2022-12-03T13:17:51.531Z,34.70
2022-12-03T13:22:10.407Z,44.03
2022-12-03T13:26:36.408Z,39.90
2022-12-03T13:30:44.863Z,35.77
2022-12-03T13:34:52.304Z,38.40
2022-12-03T13:38:59.076Z,33.00
2022-12-03T13:43:15.526Z,38.10
2022-12-03T13:47:23.815Z,38.83
2022-12-03T13:51:32.763Z,41.70
2022-12-03T13:55:44.738Z,45.50
2022-12-03T13:59:51.814Z,40.50
2022-12-03T14:03:58.997Z,36.03
2022-12-03T14:08:06.218Z,33.90
2022-12-03T14:12:30.688Z,35.63
2022-12-03T14:16:37.479Z,41.73
2022-12-03T14:20:44.192Z,36.43
2022-12-03T14:24:52.349Z,39.40
2022-12-03T14:28:59.228Z,42.90
2022-12-03T14:33:05.898Z,49.70
2022-12-03T14:37:12.632Z,52.57
2022-12-03T14:41:38.009Z,51.70
2022-12-03T14:45:44.767Z,53.57
2022-12-03T14:49:52.778Z,55.90
2022-12-03T14:53:59.688Z,53.97
2022-12-03T14:58:06.331Z,65.77
2022-12-03T15:02:13.315Z,54.10
2022-12-03T15:06:20.003Z,57.30
2022-12-03T15:10:26.657Z,56.50
2022-12-03T15:14:33.329Z,58.93
2022-12-03T15:18:40.022Z,63.90
2022-12-03T15:22:46.647Z,63.33
2022-12-03T15:26:53.543Z,61.47
2022-12-03T15:31:00.417Z,61.10
2022-12-03T15:35:07.588Z,60.80
2022-12-03T15:39:14.274Z,62.80
2022-12-03T15:43:20.960Z,55.80
2022-12-03T15:47:27.676Z,63.10
2022-12-03T15:51:34.357Z,60.43
2022-12-03T15:55:41.019Z,56.63
2022-12-03T15:59:47.666Z,63.67
2022-12-03T16:03:54.317Z,73.33
2022-12-03T16:08:01.112Z,59.17
2022-12-03T16:12:07.860Z,74.20
2022-12-03T16:16:14.715Z,59.23
2022-12-03T16:20:21.670Z,63.60
2022-12-03T16:24:28.542Z,65.53
2022-12-03T16:28:35.212Z,82.57
2022-12-03T16:32:42.236Z,63.47
2022-12-03T16:36:48.913Z,65.17
2022-12-03T16:40:55.559Z,72.40
2022-12-03T16:45:22.825Z,62.70
2022-12-03T16:49:29.508Z,60.63
2022-12-03T16:53:36.297Z,70.47
2022-12-03T16:57:42.970Z,66.73
2022-12-03T17:01:49.686Z,73.90
2022-12-03T17:05:56.486Z,61.43
2022-12-03T17:10:04.255Z,59.07
2022-12-03T17:14:10.903Z,57.00
2022-12-03T17:18:17.597Z,57.10
2022-12-03T17:22:24.296Z,48.57
2022-12-03T17:26:31.009Z,56.43
2022-12-03T17:30:37.664Z,59.90
2022-12-03T17:34:44.335Z,55.20
2022-12-03T17:38:51.183Z,47.27
2022-12-03T17:42:57.821Z,50.60
2022-12-03T17:47:05.572Z,52.50
2022-12-03T17:51:12.264Z,54.57
2022-12-03T17:55:29.695Z,67.63
2022-12-03T17:59:40.740Z,52.57
2022-12-03T18:03:47.417Z,52.47
2022-12-03T18:07:54.150Z,48.50
2022-12-03T18:12:00.869Z,50.83
2022-12-03T18:16:07.817Z,55.53
2022-12-03T18:20:14.610Z,56.10
2022-12-03T18:24:21.890Z,48.97
2022-12-03T18:28:30.817Z,55.73
2022-12-03T18:32:37.609Z,51.40
2022-12-03T18:36:44.391Z,50.37
2022-12-03T18:40:54.812Z,46.93
2022-12-03T18:45:01.617Z,51.53
2022-12-03T18:49:10.086Z,50.70
2022-12-03T18:53:18.691Z,47.80
2022-12-03T18:57:25.377Z,42.00
2022-12-03T19:01:33.569Z,49.90
2022-12-03T19:05:40.223Z,46.93
2022-12-03T19:09:47.156Z,54.57
2022-12-03T19:13:53.936Z,48.37
2022-12-03T19:18:00.716Z,50.57
2022-12-03T19:22:07.375Z,51.33
2022-12-03T19:26:14.555Z,52.23
2022-12-03T19:30:22.128Z,46.40
2022-12-03T19:34:28.927Z,46.97
2022-12-03T19:38:35.635Z,50.27
2022-12-03T19:42:42.631Z,48.67
2022-12-03T19:46:49.891Z,52.20
2022-12-03T19:51:13.519Z,47.07
2022-12-03T19:55:23.270Z,46.07
2022-12-03T19:59:29.895Z,55.80
2022-12-03T20:03:40.684Z,46.87
2022-12-03T20:07:47.401Z,46.20
2022-12-03T20:11:54.182Z,48.77
2022-12-03T20:16:09.091Z,48.57
2022-12-03T20:20:15.831Z,46.80
2022-12-03T20:24:22.528Z,53.53
2022-12-03T20:28:29.397Z,54.30
2022-12-03T20:32:40.563Z,49.60
2022-12-03T20:36:50.421Z,53.70
2022-12-03T20:41:04.397Z,48.73
2022-12-03T20:45:11.247Z,53.00
2022-12-03T20:49:17.919Z,48.43
2022-12-03T20:53:25.593Z,49.63
2022-12-03T20:57:32.541Z,52.70
2022-12-03T21:01:40.352Z,54.80
2022-12-03T21:05:47.674Z,49.80
2022-12-03T21:09:54.524Z,58.60
2022-12-03T21:14:02.544Z,57.27
2022-12-03T21:18:11.452Z,54.33
2022-12-03T21:22:18.105Z,54.03
2022-12-03T21:26:24.917Z,60.60
2022-12-03T21:30:31.962Z,62.33
2022-12-03T21:34:39.133Z,58.33
2022-12-03T21:38:46.026Z,57.23
2022-12-03T21:42:52.687Z,55.73
2022-12-03T21:47:11.764Z,57.07
2022-12-03T21:51:21.245Z,64.97
2022-12-03T21:55:27.903Z,65.47
2022-12-03T21:59:34.574Z,60.63
2022-12-03T22:03:41.791Z,61.87
2022-12-03T22:07:48.570Z,69.20
2022-12-03T22:11:56.914Z,61.03
2022-12-03T22:16:05.988Z,66.03
2022-12-03T22:20:13.027Z,59.63
2022-12-03T22:24:21.645Z,67.83
2022-12-03T22:28:28.540Z,69.97
2022-12-03T22:32:35.856Z,65.33
2022-12-03T22:36:42.925Z,62.17
2022-12-03T22:40:49.758Z,66.70
2022-12-03T22:44:56.419Z,64.40
2022-12-03T22:49:07.105Z,65.80
2022-12-03T22:53:14.837Z,61.93
2022-12-03T22:57:21.535Z,63.37
2022-12-03T23:01:34.261Z,75.07
2022-12-03T23:09:47.486Z,68.90
2022-12-03T23:13:54.392Z,60.60
2022-12-03T23:18:01.293Z,62.67
2022-12-03T23:22:07.977Z,64.83
2022-12-03T23:26:16.363Z,60.77
2022-12-03T23:30:23.063Z,68.40
2022-12-03T23:34:29.771Z,69.63
2022-12-03T23:38:36.528Z,66.43
2022-12-03T23:42:43.196Z,67.67
2022-12-03T23:46:49.939Z,64.63
2022-12-03T23:50:56.680Z,71.27
2022-12-03T23:55:07.605Z,67.33
2022-12-03T23:59:14.422Z,63.23
